Time;durP1;ratioP1;P1;durP2;ratioP2;P2;SDS_P1;SDS_P2;PMS_P1;PMS_P2;Temp;Humidity;BMP_temperature;BMP_pressure;BME280_temperature;BME280_humidity;BME280_pressure;Samples;Min_cycle;Max_cycle;Signal;HPM_P1;HPM_P2
2023/06/05 00:01:15;;;;;;;18.55;3.75;;;;;;;17.10;55.84;101195.66;5007843;28;20169;-88
2023/06/05 00:03:43;;;;;;;6.72;1.80;;;;;;;17.15;55.83;101215.97;5000399;28;20093;-92
2023/06/05 00:06:08;;;;;;;8.32;2.30;;;;;;;17.17;55.18;101219.38;4997615;28;20074;-92
2023/06/05 00:08:34;;;;;;;5.50;2.50;;;;;;;16.85;55.35;101189.09;4976956;28;20050;-93
2023/06/05 00:10:59;;;;;;;4.38;2.05;;;;;;;16.92;55.21;101203.78;5029525;28;20064;-91
2023/06/05 00:13:25;;;;;;;7.13;2.83;;;;;;;16.92;55.56;101214.66;5016678;28;20076;-91
2023/06/05 00:15:51;;;;;;;16.73;2.35;;;;;;;17.07;55.40;101228.59;5015331;28;20091;-92
2023/06/05 00:18:17;;;;;;;5.28;1.83;;;;;;;17.09;55.42;101226.59;5015614;28;20556;-90
2023/06/05 00:20:43;;;;;;;11.65;2.00;;;;;;;17.09;55.07;101213.84;5016375;28;20121;-91
2023/06/05 00:23:11;;;;;;;6.35;2.30;;;;;;;17.00;54.81;101178.59;5015775;28;20040;-92
2023/06/05 00:25:36;;;;;;;13.65;3.30;;;;;;;17.19;54.80;101201.03;5033076;28;20029;-91
2023/06/05 00:28:02;;;;;;;6.18;2.22;;;;;;;17.35;54.60;101217.53;5021139;28;20048;-91
2023/06/05 00:30:28;;;;;;;6.10;2.08;;;;;;;17.28;54.35;101194.69;5028211;28;20067;-93
2023/06/05 00:32:53;;;;;;;4.53;2.15;;;;;;;17.37;54.35;101220.09;5027683;28;20056;-93
2023/06/05 00:35:19;;;;;;;5.10;2.45;;;;;;;17.36;54.38;101213.81;5035341;28;20048;-93
2023/06/05 00:37:46;;;;;;;7.50;2.30;;;;;;;17.49;54.10;101223.47;5036950;28;20026;-94
2023/06/05 00:40:12;;;;;;;5.28;1.80;;;;;;;17.51;54.06;101213.28;5022279;28;20037;-94
2023/06/05 00:42:38;;;;;;;6.97;2.15;;;;;;;17.20;54.52;101191.03;5017079;28;20052;-93
2023/06/05 00:45:04;;;;;;;8.65;2.00;;;;;;;17.39;54.23;101218.94;5017727;28;20030;-91
2023/06/05 00:47:31;;;;;;;13.63;3.00;;;;;;;17.32;54.10;101208.81;5020176;28;20030;-93
2023/06/05 00:49:57;;;;;;;11.27;2.22;;;;;;;17.39;54.08;101207.22;5015122;28;20441;-94
2023/06/05 00:52:22;;;;;;;8.70;2.45;;;;;;;17.42;54.23;101199.59;5013848;28;20037;-90
2023/06/05 00:54:48;;;;;;;15.65;2.80;;;;;;;17.45;54.01;101194.84;5013214;28;20092;-91
2023/06/05 00:57:14;;;;;;;7.40;2.20;;;;;;;17.53;53.38;101208.50;5014804;28;20409;-92
2023/06/05 00:59:40;;;;;;;7.78;1.77;;;;;;;17.45;53.46;101194.84;5014246;28;20034;-92
2023/06/05 01:02:06;;;;;;;8.18;2.20;;;;;;;17.51;53.36;101199.66;5015796;28;20034;-91
2023/06/05 01:04:36;;;;;;;93.55;9.25;;;;;;;17.29;53.84;101179.22;5021398;28;20033;-93
2023/06/05 01:07:02;;;;;;;6.68;3.05;;;;;;;17.42;53.27;101194.16;5019657;28;20061;-93
2023/06/05 01:09:31;;;;;;;6.22;2.45;;;;;;;17.36;53.55;101192.06;5015646;28;20049;-91
2023/06/05 01:12:14;;;;;;;7.88;3.17;;;;;;;17.29;53.97;101196.41;5015476;28;20490;-93
2023/06/05 01:14:45;;;;;;;7.65;2.53;;;;;;;17.18;54.48;101188.47;5015864;28;20064;-92
2023/06/05 01:17:13;;;;;;;7.33;2.33;;;;;;;17.13;53.99;101174.47;5015125;28;20080;-93
2023/06/05 01:19:39;;;;;;;10.30;2.08;;;;;;;17.30;54.00;101187.25;5015412;28;20276;-92
2023/06/05 01:22:08;;;;;;;5.03;2.00;;;;;;;17.39;53.68;101202.63;5016558;28;20030;-92
2023/06/05 01:24:35;;;;;;;11.10;2.55;;;;;;;17.33;52.13;101181.50;5017268;28;20057;-91
2023/06/05 01:27:11;;;;;;;3.35;1.85;;;;;;;17.35;52.20;101189.47;5024036;28;20030;-93
2023/06/05 01:30:04;;;;;;;4.38;2.15;;;;;;;17.37;52.38;101195.59;5028072;28;20046;-93
2023/06/05 01:32:54;;;;;;;12.13;2.47;;;;;;;17.29;52.70;101196.41;5034828;28;20032;-92
2023/06/05 01:35:27;;;;;;;7.40;2.47;;;;;;;17.36;52.45;101192.06;5035426;28;20085;-92
2023/06/05 01:37:54;;;;;;;8.07;2.22;;;;;;;17.48;51.91;101194.53;5012846;28;20034;-93
2023/06/05 01:40:23;;;;;;;9.52;2.55;;;;;;;17.43;51.77;101171.38;5011683;28;20469;-92
2023/06/05 01:42:51;;;;;;;6.55;2.00;;;;;;;17.60;52.04;101196.03;5012006;28;20041;-92
2023/06/05 01:45:17;;;;;;;3.85;1.88;;;;;;;17.52;52.47;101194.06;5010987;28;20091;-93
2023/06/05 01:47:45;;;;;;;4.57;2.03;;;;;;;17.29;52.03;101190.09;5012595;28;20025;-92
2023/06/05 01:50:12;;;;;;;7.15;2.22;;;;;;;17.30;52.12;101198.13;5016868;28;20029;-93
2023/06/05 01:52:41;;;;;;;18.33;3.05;;;;;;;17.30;52.17;101198.13;5037528;28;20037;-92
2023/06/05 01:55:14;;;;;;;8.90;2.20;;;;;;;17.42;51.97;101206.91;5035466;28;20034;-94
2023/06/05 01:57:41;;;;;;;13.27;2.92;;;;;;;17.47;52.35;101204.56;5030134;28;20029;-93
2023/06/05 02:00:11;;;;;;;17.67;2.50;;;;;;;17.52;52.44;101204.09;5018582;28;20022;-95
2023/06/05 02:02:37;;;;;;;10.95;2.50;;;;;;;17.55;51.99;101201.09;5015140;28;20029;-90
2023/06/05 02:05:02;;;;;;;4.45;2.08;;;;;;;17.61;51.95;101201.34;5022137;28;20037;-94
2023/06/05 02:07:28;;;;;;;4.63;2.42;;;;;;;17.46;51.87;101169.38;5024106;28;20034;-93
2023/06/05 02:09:53;;;;;;;24.20;3.03;;;;;;;17.37;51.57;101166.56;5020102;28;20034;-92
2023/06/05 02:12:19;;;;;;;5.40;2.33;;;;;;;17.48;51.78;101172.78;5013379;28;20038;-92
2023/06/05 02:14:44;;;;;;;3.75;1.88;;;;;;;17.55;50.87;101184.78;5023279;28;20094;-92
2023/06/05 02:17:13;;;;;;;4.45;2.42;;;;;;;17.52;51.07;101188.63;5034654;28;20281;-93
2023/06/05 02:19:42;;;;;;;11.27;2.78;;;;;;;17.58;51.32;101195.34;5035709;28;20093;-93
2023/06/05 02:22:07;;;;;;;6.32;2.38;;;;;;;17.51;51.66;101199.66;5025548;28;20034;-93
2023/06/05 02:24:34;;;;;;;8.20;2.30;;;;;;;17.32;51.16;101178.91;5027617;28;20056;-92
2023/06/05 02:27:00;;;;;;;5.75;2.55;;;;;;;17.40;52.08;101190.72;5024922;28;20033;-92
2023/06/05 02:29:25;;;;;;;11.55;3.10;;;;;;;17.26;54.48;101194.00;5034640;28;20056;-92
2023/06/05 02:31:51;;;;;;;23.80;4.05;;;;;;;17.11;55.77;101176.50;5034769;28;20093;-92
2023/06/05 02:34:16;;;;;;;6.80;2.70;;;;;;;17.24;55.95;101187.88;5014787;28;20433;-91
2023/06/05 02:36:45;;;;;;;11.07;2.88;;;;;;;17.37;55.21;101201.91;5016041;28;20069;-90
2023/06/05 02:39:14;;;;;;;6.68;2.75;;;;;;;17.31;54.29;101191.66;5019251;28;20097;-92
2023/06/05 02:41:41;;;;;;;22.85;4.85;;;;;;;17.32;55.77;101206.09;5019647;28;20498;-92
2023/06/05 02:44:06;;;;;;;15.40;4.20;;;;;;;17.41;56.36;101211.47;5016550;28;20085;-93
2023/06/05 02:46:31;;;;;;;6.22;2.85;;;;;;;17.31;56.39;101209.81;5013226;28;20018;-92
2023/06/05 02:48:57;;;;;;;19.58;4.57;;;;;;;17.30;57.52;101205.41;5012326;28;20056;-92
2023/06/05 02:51:22;;;;;;;7.07;3.58;;;;;;;17.27;57.86;101209.31;5011085;28;20030;-93
2023/06/05 02:53:48;;;;;;;12.45;3.33;;;;;;;17.25;56.49;101211.31;5018284;28;20060;-93
2023/06/05 02:56:13;;;;;;;10.85;3.13;;;;;;;17.19;55.66;101202.91;5025742;28;20083;-94
2023/06/05 02:58:43;;;;;;;10.00;2.90;;;;;;;17.18;54.64;101204.78;5019490;28;20030;-94
2023/06/05 03:01:10;;;;;;;9.85;4.13;;;;;;;17.24;55.07;101206.91;5016953;28;20280;-92
2023/06/05 03:03:35;;;;;;;14.25;3.55;;;;;;;17.28;56.39;101221.88;5021772;28;20030;-93
2023/06/05 03:06:06;;;;;;;18.38;5.18;;;;;;;17.22;57.01;101208.03;5025460;28;20025;-93
2023/06/05 03:08:36;;;;;;;16.08;3.70;;;;;;;17.25;57.51;101222.19;5020368;28;20054;-93
2023/06/05 03:11:03;;;;;;;13.65;4.38;;;;;;;17.19;57.69;101211.91;5018189;28;20026;-95
2023/06/05 03:13:29;;;;;;;24.77;4.45;;;;;;;17.21;57.61;101220.78;5024657;28;20052;-94
2023/06/05 03:16:00;;;;;;;25.45;4.35;;;;;;;17.21;58.27;101231.66;5024597;28;20006;-83
2023/06/05 03:18:29;;;;;;;20.73;4.82;;;;;;;17.25;58.33;101234.91;5017637;28;20032;-86
2023/06/05 03:20:56;;;;;;;10.10;4.22;;;;;;;17.15;58.39;101232.28;5016654;28;20448;-87
2023/06/05 03:23:27;;;;;;;13.20;3.20;;;;;;;17.23;54.71;101232.34;5015224;28;20021;-86
2023/06/05 03:25:53;;;;;;;5.93;2.90;;;;;;;17.23;53.16;101218.75;5030464;28;20022;-87
2023/06/05 03:28:19;;;;;;;10.00;3.22;;;;;;;17.40;53.16;101236.94;5035270;28;20072;-88
2023/06/05 03:30:45;;;;;;;7.10;3.30;;;;;;;17.41;53.68;101240.53;5033453;28;20052;-83
2023/06/05 03:33:13;;;;;;;14.68;3.50;;;;;;;17.51;54.04;101241.31;5033729;28;20072;-94
2023/06/05 03:35:49;;;;;;;16.83;3.08;;;;;;;17.58;52.99;101233.44;5014587;28;20030;-90
2023/06/05 03:38:14;;;;;;;25.63;9.57;;;;;;;17.58;52.57;101238.88;5031150;28;20041;-87
2023/06/05 03:40:40;;;;;;;9.23;3.70;;;;;;;17.68;52.26;101239.63;5015817;28;20030;-86
2023/06/05 03:43:06;;;;;;;12.68;3.60;;;;;;;17.69;51.84;101230.47;5012708;28;20037;-82
2023/06/05 03:45:36;;;;;;;24.42;5.30;;;;;;;17.75;51.70;101224.41;4994993;28;20528;-81
2023/06/05 03:48:02;;;;;;;18.80;3.63;;;;;;;17.75;51.63;101232.56;5012387;28;20064;-83
2023/06/05 03:50:28;;;;;;;13.80;3.05;;;;;;;17.58;51.87;101222.56;5008970;28;20049;-81
2023/06/05 03:53:01;;;;;;;18.95;3.53;;;;;;;17.68;52.16;101245.06;5010868;28;20494;-81
2023/06/05 03:55:41;;;;;;;32.78;6.32;;;;;;;17.64;53.37;101233.69;5011158;28;20041;-80
2023/06/05 03:58:14;;;;;;;22.05;5.00;;;;;;;17.67;55.94;101243.38;5011242;28;20553;-79
2023/06/05 04:00:44;;;;;;;18.38;5.47;;;;;;;17.62;57.29;101222.06;5010880;28;20029;-78
2023/06/05 04:03:10;;;;;;;25.40;6.50;;;;;;;17.58;58.04;101244.31;5011311;28;20018;-83
2023/06/05 04:05:36;;;;;;;20.88;6.18;;;;;;;17.42;58.27;101224.06;5012069;28;20091;-80
2023/06/05 04:08:03;;;;;;;34.22;6.45;;;;;;;17.43;58.61;101236.66;5009523;28;20045;-79
2023/06/05 04:10:29;;;;;;;38.40;8.20;;;;;;;17.35;58.98;101227.56;5011229;28;20022;-83
2023/06/05 04:12:55;;;;;;;36.58;8.40;;;;;;;17.48;58.99;101238.91;5011902;28;20034;-88
2023/06/05 04:15:21;;;;;;;36.15;8.30;;;;;;;17.55;58.84;101231.03;5013109;28;20026;-81
2023/06/05 04:17:46;;;;;;;41.95;8.93;;;;;;;17.76;59.37;101239.72;5019001;28;20022;-85
2023/06/05 04:20:15;;;;;;;55.10;9.07;;;;;;;17.81;59.03;101230.09;5019205;28;20498;-87
2023/06/05 04:22:47;;;;;;;25.95;8.77;;;;;;;17.93;58.65;101239.72;5031781;28;20041;-83
2023/06/05 04:25:13;;;;;;;19.20;7.93;;;;;;;17.94;58.35;101235.13;5026170;28;20083;-89
2023/06/05 04:27:41;;;;;;;31.95;7.57;;;;;;;18.03;58.22;101244.22;5012882;28;20042;-83
2023/06/05 04:30:08;;;;;;;33.40;7.13;;;;;;;18.12;57.88;101238.69;5018664;28;20033;-82
2023/06/05 04:32:36;;;;;;;25.20;7.72;;;;;;;18.23;57.44;101235.69;5016062;28;20037;-89
2023/06/05 04:35:03;;;;;;;30.48;6.90;;;;;;;18.43;56.83;101252.69;5018272;28;20035;-89
2023/06/05 04:37:28;;;;;;;28.58;6.85;;;;;;;18.63;56.56;101258.78;5017323;28;20026;-90
2023/06/05 04:39:54;;;;;;;40.67;8.02;;;;;;;18.70;56.73;101265.31;5016946;28;20143;-91
2023/06/05 04:42:21;;;;;;;41.15;8.50;;;;;;;18.80;56.58;101260.59;5014498;28;20030;-85
2023/06/05 04:44:58;;;;;;;58.47;9.48;;;;;;;18.82;56.32;101255.81;5037794;28;20572;-81
2023/06/05 04:47:23;;;;;;;41.65;8.25;;;;;;;19.03;56.20;101261.72;5046249;28;20037;-87
2023/06/05 04:49:51;;;;;;;34.88;6.97;;;;;;;19.10;55.63;101248.28;5034119;28;20148;-86
2023/06/05 04:52:17;;;;;;;35.47;7.20;;;;;;;19.19;55.52;101272.69;5049616;28;20039;-90
2023/06/05 04:54:43;;;;;;;45.95;7.32;;;;;;;19.40;54.93;101270.41;5035561;28;20479;-92
2023/06/05 04:57:10;;;;;;;43.60;7.97;;;;;;;19.51;55.08;101264.63;5050708;28;20045;-82
2023/06/05 04:59:36;;;;;;;54.75;8.13;;;;;;;19.59;54.22;101247.44;5050396;28;20079;-87
2023/06/05 05:02:03;;;;;;;49.28;8.27;;;;;;;19.82;53.81;101264.84;5049578;28;20036;-89
2023/06/05 05:04:29;;;;;;;27.73;8.40;;;;;;;19.87;53.63;101265.22;5049628;28;20093;-86
2023/06/05 05:07:01;;;;;;;36.65;10.02;;;;;;;20.03;53.56;101272.53;5048565;28;20075;-80
2023/06/05 05:09:34;;;;;;;46.67;9.57;;;;;;;19.95;53.35;101242.50;5049369;28;20120;-84
2023/06/05 05:11:59;;;;;;;39.95;9.23;;;;;;;20.22;53.18;101265.88;5050552;28;20029;-81
2023/06/05 05:14:27;;;;;;;34.40;8.95;;;;;;;20.34;53.04;101270.00;5049717;28;20025;-78
2023/06/05 05:16:53;;;;;;;36.33;8.90;;;;;;;20.38;52.63;101254.97;5013814;28;20030;-85
2023/06/05 05:19:19;;;;;;;35.88;9.43;;;;;;;20.53;52.67;101258.72;5019794;28;20026;-83
2023/06/05 05:21:45;;;;;;;41.50;9.85;;;;;;;20.80;52.16;101291.09;5022484;28;20389;-82
2023/06/05 05:24:11;;;;;;;29.40;8.43;;;;;;;20.76;52.09;101286.19;5010933;28;20025;-83
2023/06/05 05:26:39;;;;;;;47.42;9.73;;;;;;;20.80;51.63;101287.53;5011432;28;20033;-83
2023/06/05 05:29:05;;;;;;;57.13;7.95;;;;;;;20.68;50.05;101262.44;5010768;28;20030;-85
2023/06/05 05:31:31;;;;;;;31.48;9.35;;;;;;;20.88;51.70;101284.78;5011472;28;20096;-85
2023/06/05 05:33:58;;;;;;;48.33;11.20;;;;;;;20.91;51.93;101284.44;5010435;28;20037;-90
2023/06/05 05:36:26;;;;;;;26.30;7.00;;;;;;;20.76;48.49;101267.91;5012885;28;20064;-85
2023/06/05 05:38:55;;;;;;;19.63;4.03;;;;;;;20.93;46.10;101274.16;5012865;28;20084;-90
2023/06/05 05:41:21;;;;;;;6.15;2.97;;;;;;;20.90;44.48;101255.38;5011999;28;20036;-87
2023/06/05 05:43:47;;;;;;;29.98;5.40;;;;;;;21.03;46.22;101267.47;5011229;28;20525;-87
2023/06/05 05:46:13;;;;;;;48.63;8.93;;;;;;;21.26;47.42;101283.13;5010945;28;20025;-87
2023/06/05 05:48:40;;;;;;;20.92;4.18;;;;;;;21.38;45.34;101285.28;5010803;28;20602;-87
2023/06/05 05:51:09;;;;;;;23.15;3.22;;;;;;;21.35;44.46;101271.94;5010956;28;20030;-91
2023/06/05 05:53:35;;;;;;;20.95;3.30;;;;;;;21.51;44.48;101282.81;5013328;28;20038;-89
2023/06/05 05:56:01;;;;;;;16.10;2.55;;;;;;;21.59;42.98;101285.50;5008530;28;20347;-89
2023/06/05 05:58:27;;;;;;;9.32;2.80;;;;;;;21.56;41.94;101269.44;5010094;28;20034;-86
2023/06/05 06:00:53;;;;;;;14.20;3.38;;;;;;;21.69;41.22;101286.13;5012749;28;20383;-90
2023/06/05 06:03:19;;;;;;;33.85;4.65;;;;;;;21.73;40.77;101280.28;5010586;28;20034;-91
2023/06/05 06:05:44;;;;;;;53.65;8.40;;;;;;;21.88;40.94;101289.44;5025296;28;20497;-85
2023/06/05 06:08:11;;;;;;;40.88;5.25;;;;;;;21.95;40.72;101277.59;5012846;28;20052;-89
2023/06/05 06:10:36;;;;;;;16.08;3.58;;;;;;;21.94;39.87;101289.59;5013385;28;20111;-85
2023/06/05 06:13:02;;;;;;;12.20;2.28;;;;;;;21.95;40.02;101263.06;5012845;28;20498;-80
2023/06/05 06:15:27;;;;;;;51.35;5.20;;;;;;;22.06;40.64;101268.09;5017412;28;20041;-92
2023/06/05 06:17:53;;;;;;;13.10;2.28;;;;;;;21.92;40.43;101257.94;5019826;28;20022;-87
2023/06/05 06:20:19;;;;;;;11.85;2.90;;;;;;;21.87;38.59;101258.44;5013931;28;20063;-89
2023/06/05 06:22:45;;;;;;;8.20;1.95;;;;;;;21.89;39.06;101261.03;5010112;28;20029;-87
2023/06/05 06:25:12;;;;;;;9.00;2.45;;;;;;;21.98;39.73;101262.69;5014024;28;20061;-83
2023/06/05 06:27:38;;;;;;;83.13;10.13;;;;;;;22.12;40.23;101248.16;5014920;28;20125;-90
2023/06/05 06:30:04;;;;;;;17.10;2.88;;;;;;;22.33;39.56;101266.66;5011730;28;20560;-89
2023/06/05 06:32:30;;;;;;;12.10;2.65;;;;;;;22.34;38.64;101262.88;5013704;28;20029;-85
2023/06/05 06:34:56;;;;;;;14.38;2.50;;;;;;;22.40;38.82;101267.63;5015837;28;20034;-90
2023/06/05 06:37:22;;;;;;;19.60;3.60;;;;;;;22.40;39.89;101263.00;5020580;28;20030;-87
2023/06/05 06:39:49;;;;;;;25.05;3.35;;;;;;;22.43;40.22;101262.63;5014024;28;20028;-86
2023/06/05 06:42:14;;;;;;;24.83;3.72;;;;;;;22.50;38.44;101269.06;5015973;28;20026;-84
2023/06/05 06:44:40;;;;;;;17.25;3.20;;;;;;;22.17;38.13;101251.19;5015246;28;20033;-82
2023/06/05 06:47:06;;;;;;;21.10;2.88;;;;;;;22.28;37.48;101269.97;5015122;28;20510;-85
2023/06/05 06:49:32;;;;;;;9.98;2.60;;;;;;;22.33;38.30;101250.19;5019058;28;20120;-84
2023/06/05 06:51:58;;;;;;;8.63;2.67;;;;;;;22.46;38.59;101283.31;5013876;28;20037;-85
2023/06/05 06:54:25;;;;;;;14.98;2.65;;;;;;;22.39;39.60;101254.94;5012116;28;20030;-84
2023/06/05 06:56:51;;;;;;;18.35;3.45;;;;;;;22.51;39.80;101259.78;5013354;28;20030;-85
2023/06/05 06:59:16;;;;;;;21.38;3.60;;;;;;;22.50;39.68;101274.56;5013100;28;20405;-84
2023/06/05 07:01:45;;;;;;;13.50;2.58;;;;;;;22.40;37.26;101267.63;5013496;28;20029;-85
2023/06/05 07:04:12;;;;;;;33.03;2.95;;;;;;;22.42;38.19;101276.50;5014500;28;20032;-84
2023/06/05 07:06:38;;;;;;;13.35;2.45;;;;;;;22.53;39.72;101262.34;5015530;28;20029;-84
2023/06/05 07:09:03;;;;;;;16.25;3.30;;;;;;;22.54;38.79;101264.03;5016075;28;20057;-85
2023/06/05 07:11:29;;;;;;;17.95;3.40;;;;;;;22.63;38.38;101271.13;5022781;28;20480;-83
2023/06/05 07:13:54;;;;;;;14.77;5.32;;;;;;;22.90;39.21;101291.66;5026515;28;20417;-86
2023/06/05 07:16:20;;;;;;;16.27;3.50;;;;;;;23.02;38.79;101293.72;5016285;28;20034;-84
2023/06/05 07:18:45;;;;;;;20.42;3.30;;;;;;;22.90;39.31;101258.72;5013106;28;20037;-85
2023/06/05 07:21:12;;;;;;;10.85;3.63;;;;;;;23.09;39.19;101285.56;5012836;28;20527;-85
2023/06/05 07:23:39;;;;;;;8.88;3.00;;;;;;;23.01;38.72;101260.97;5012153;28;20038;-84
2023/06/05 07:26:04;;;;;;;22.15;2.47;;;;;;;23.01;39.17;101259.09;5013322;28;20112;-84
2023/06/05 07:28:30;;;;;;;10.23;2.42;;;;;;;23.12;38.70;101282.44;5011290;28;20113;-85
2023/06/05 07:30:55;;;;;;;25.08;4.75;;;;;;;23.16;39.80;101278.28;5012836;28;20084;-84
2023/06/05 07:33:21;;;;;;;9.65;2.22;;;;;;;23.07;40.07;101284.91;5012149;28;20038;-86
2023/06/05 07:35:48;;;;;;;23.85;3.95;;;;;;;23.12;40.58;101276.94;5011892;28;20029;-85
2023/06/05 07:38:14;;;;;;;19.75;5.07;;;;;;;23.14;41.20;101256.53;5012171;28;20088;-85
2023/06/05 07:40:39;;;;;;;11.13;2.88;;;;;;;23.29;41.51;101281.22;5012411;28;20044;-85
2023/06/05 07:43:06;;;;;;;10.00;2.67;;;;;;;23.23;39.86;101254.53;5011009;28;20034;-84
2023/06/05 07:45:31;;;;;;;6.63;2.25;;;;;;;23.15;40.29;101240.88;5019741;28;20029;-85
2023/06/05 07:48:01;;;;;;;43.72;5.63;;;;;;;23.46;41.57;101282.72;5032317;28;20030;-84
2023/06/05 07:50:28;;;;;;;26.92;5.45;;;;;;;23.47;40.94;101265.22;5034065;28;20049;-85
2023/06/05 07:52:53;;;;;;;37.38;3.80;;;;;;;23.59;43.49;101276.53;5013275;28;20026;-83
2023/06/05 07:55:18;;;;;;;9.68;2.63;;;;;;;23.45;44.09;101271.94;5012822;28;20537;-85
2023/06/05 07:57:52;;;;;;;12.23;2.45;;;;;;;23.57;44.04;101287.72;5013756;28;20033;-85
2023/06/05 08:00:19;;;;;;;16.77;2.85;;;;;;;23.55;45.06;101283.44;5013480;28;20034;-83
2023/06/05 08:02:45;;;;;;;13.77;2.22;;;;;;;23.50;45.95;101273.06;5014817;28;20029;-83
2023/06/05 08:05:10;;;;;;;22.70;3.60;;;;;;;23.44;45.35;101273.81;5014534;28;20022;-83
2023/06/05 08:07:36;;;;;;;19.85;5.38;;;;;;;23.34;45.37;101267.75;5020746;28;20084;-83
2023/06/05 08:10:02;;;;;;;14.77;2.00;;;;;;;23.43;44.23;101277.59;5028260;28;20173;-85
2023/06/05 08:12:27;;;;;;;15.48;2.92;;;;;;;23.50;43.44;101286.78;5021383;28;20030;-84
2023/06/05 08:14:53;;;;;;;21.60;2.97;;;;;;;23.46;43.27;101279.09;5012649;28;20026;-85
2023/06/05 08:17:18;;;;;;;9.88;2.78;;;;;;;23.31;42.38;101266.25;5012547;28;20037;-85
2023/06/05 08:19:44;;;;;;;18.73;3.05;;;;;;;23.25;41.90;101263.41;5012638;28;20030;-85
2023/06/05 08:22:09;;;;;;;16.17;3.30;;;;;;;23.46;41.61;101279.09;5013504;28;20030;-84
2023/06/05 08:24:36;;;;;;;8.75;2.85;;;;;;;23.40;42.13;101280.75;5012427;28;20601;-87
2023/06/05 08:27:01;;;;;;;22.60;3.10;;;;;;;23.35;42.17;101263.97;5012497;28;20021;-85
2023/06/05 08:29:28;;;;;;;6.00;1.95;;;;;;;23.42;41.75;101275.94;5012324;28;20461;-85
2023/06/05 08:31:54;;;;;;;15.23;2.97;;;;;;;23.34;41.51;101267.75;5012374;28;20034;-86
2023/06/05 08:34:20;;;;;;;8.50;2.40;;;;;;;23.27;42.95;101266.84;5010868;28;20037;-85
2023/06/05 08:36:45;;;;;;;15.68;2.60;;;;;;;23.37;43.58;101278.34;5012144;28;20065;-85
2023/06/05 08:39:12;;;;;;;7.80;2.03;;;;;;;23.23;42.28;101281.97;5011078;28;20527;-84
2023/06/05 08:41:38;;;;;;;15.75;3.45;;;;;;;23.16;41.65;101253.59;5012087;28;20066;-86
2023/06/05 08:44:04;;;;;;;11.77;2.15;;;;;;;23.29;42.38;101281.22;5013636;28;20037;-84
2023/06/05 08:46:34;;;;;;;10.57;2.40;;;;;;;23.32;42.75;101280.81;5012142;28;20029;-84
2023/06/05 08:49:08;;;;;;;13.93;3.00;;;;;;;23.30;43.03;101266.44;5012530;28;20092;-84
2023/06/05 08:51:33;;;;;;;10.95;2.15;;;;;;;23.43;43.52;101280.34;5012345;28;20528;-83
2023/06/05 08:54:12;;;;;;;15.85;2.60;;;;;;;23.50;43.84;101284.03;5012652;28;20061;-84
2023/06/05 08:56:39;;;;;;;23.85;3.15;;;;;;;23.53;44.35;101280.06;5013607;28;20025;-83
2023/06/05 08:59:08;;;;;;;21.48;3.33;;;;;;;23.64;42.35;101288.63;5015164;28;20037;-84
2023/06/05 09:01:34;;;;;;;13.90;2.35;;;;;;;23.58;41.64;101285.81;5030248;28;20022;-84
2023/06/05 09:03:59;;;;;;;10.02;1.98;;;;;;;23.55;40.79;101284.31;5033356;28;20052;-86
2023/06/05 09:06:24;;;;;;;11.45;2.47;;;;;;;23.49;41.24;101282.31;5033837;28;20057;-85
2023/06/05 09:08:50;;;;;;;8.60;2.60;;;;;;;23.35;42.05;101255.72;5029035;28;20153;-83
2023/06/05 09:11:34;;;;;;;6.43;1.65;;;;;;;23.52;42.89;101284.69;5023834;28;20050;-83
2023/06/05 09:14:01;;;;;;;19.00;2.55;;;;;;;23.70;41.93;101285.09;5026378;28;20033;-83
2023/06/05 09:16:43;;;;;;;20.25;2.75;;;;;;;23.90;40.94;101292.72;5017863;28;20080;-84
2023/06/05 09:19:11;;;;;;;28.70;3.90;;;;;;;23.76;41.39;101273.34;5020388;28;20037;-85
2023/06/05 09:21:37;;;;;;;32.30;3.75;;;;;;;23.83;42.33;101278.91;5011519;28;20123;-84
2023/06/05 09:24:23;;;;;;;10.80;2.75;;;;;;;23.77;41.96;101286.03;5011616;28;20049;-84
2023/06/05 09:27:02;;;;;;;12.80;2.70;;;;;;;23.84;42.19;101297.97;5011518;28;20604;-84
2023/06/05 09:29:38;;;;;;;33.42;4.57;;;;;;;23.74;39.42;101275.44;5010736;28;20029;-85
2023/06/05 09:32:17;;;;;;;7.95;2.50;;;;;;;23.90;40.39;101292.72;5010619;28;20030;-85
2023/06/05 09:34:44;;;;;;;5.05;1.98;;;;;;;24.02;40.40;101269.16;5011819;28;20398;-83
2023/06/05 09:37:12;;;;;;;6.50;1.58;;;;;;;24.16;38.85;101282.00;5011819;28;20025;-85
2023/06/05 09:39:46;;;;;;;19.42;2.42;;;;;;;24.08;38.27;101260.13;5018105;28;20041;-83
2023/06/05 09:42:11;;;;;;;8.73;2.60;;;;;;;23.98;38.46;101276.94;5018018;28;20018;-82
2023/06/05 09:44:37;;;;;;;6.75;1.70;;;;;;;23.91;38.80;101291.69;5009894;28;20033;-85
2023/06/05 09:47:07;;;;;;;7.90;2.58;;;;;;;23.98;39.83;101295.34;5011188;28;20474;-84
2023/06/05 09:49:38;;;;;;;8.68;2.45;;;;;;;24.01;38.48;101304.03;5011220;28;20048;-84
2023/06/05 09:52:04;;;;;;;13.43;2.20;;;;;;;24.06;38.74;101289.72;5011303;28;20026;-85
2023/06/05 09:54:31;;;;;;;9.20;2.50;;;;;;;24.01;38.55;101286.69;5012042;28;20433;-85
2023/06/05 09:57:02;;;;;;;14.93;3.35;;;;;;;23.96;39.33;101272.69;5012773;28;20120;-83
2023/06/05 09:59:31;;;;;;;8.88;2.08;;;;;;;23.98;39.49;101281.59;5011491;28;20026;-87
2023/06/05 10:01:59;;;;;;;15.07;3.08;;;;;;;23.76;39.09;101287.06;5024992;28;20029;-84
2023/06/05 10:04:29;;;;;;;10.98;2.08;;;;;;;23.90;39.04;101290.84;5026276;28;20094;-83
2023/06/05 10:07:01;;;;;;;8.65;2.20;;;;;;;23.95;39.82;101292.97;5012601;28;20041;-87
2023/06/05 10:09:29;;;;;;;13.95;2.70;;;;;;;24.06;39.69;101285.09;5010886;28;20046;-85
2023/06/05 10:11:55;;;;;;;19.13;2.88;;;;;;;24.09;39.82;101278.34;5009920;28;20034;-85
2023/06/05 10:14:21;;;;;;;6.45;2.42;;;;;;;24.13;39.94;101280.50;5008746;28;20646;-83
2023/06/05 10:16:52;;;;;;;17.55;2.90;;;;;;;24.13;39.30;101274.16;5012332;28;20033;-87
2023/06/05 10:19:19;;;;;;;7.97;2.20;;;;;;;24.07;40.76;101270.28;5010797;28;20041;-87
2023/06/05 10:21:48;;;;;;;10.30;2.17;;;;;;;24.11;41.40;101279.88;5012207;28;20083;-88
2023/06/05 10:24:24;;;;;;;19.15;3.88;;;;;;;24.07;39.99;101267.53;5011964;28;20482;-87
2023/06/05 10:27:12;;;;;;;9.55;2.30;;;;;;;24.11;38.37;101277.13;5011920;28;20034;-91
2023/06/05 10:30:07;;;;;;;4.38;2.08;;;;;;;24.30;38.57;101286.59;5010831;28;20466;-81
2023/06/05 10:32:50;;;;;;;9.20;2.72;;;;;;;24.30;39.36;101287.47;5011406;28;20037;-90
2023/06/05 10:35:23;;;;;;;6.95;1.92;;;;;;;24.29;38.47;101290.38;5011738;28;20030;-90
2023/06/05 10:38:11;;;;;;;12.43;1.95;;;;;;;24.16;39.08;101299.38;5013020;28;20275;-87
2023/06/05 10:40:37;;;;;;;7.05;2.13;;;;;;;23.95;39.30;101260.84;5013090;28;20026;-87
2023/06/05 10:43:41;;;;;;;19.58;2.80;;;;;;;23.99;39.98;101310.78;5012990;28;20030;-85
2023/06/05 10:46:26;;;;;;;5.55;1.60;;;;;;;24.05;39.73;101279.78;5012958;28;20014;-86
2023/06/05 10:49:15;;;;;;;8.02;2.13;;;;;;;24.15;38.84;101289.44;5012267;28;20049;-87
2023/06/05 10:51:46;;;;;;;4.70;2.22;;;;;;;24.10;38.30;101260.78;5015141;28;20068;-87
2023/06/05 10:54:38;;;;;;;10.45;2.15;;;;;;;24.49;37.24;101305.19;5017666;28;20026;-89
2023/06/05 10:57:06;;;;;;;9.13;1.50;;;;;;;24.57;36.58;101305.03;5017621;28;20030;-92
2023/06/05 10:59:39;;;;;;;12.02;2.35;;;;;;;24.62;36.71;101286.00;5031651;28;20049;-89
2023/06/05 11:02:11;;;;;;;15.68;2.42;;;;;;;24.62;37.36;101280.50;5027335;28;20022;-85
2023/06/05 11:04:48;;;;;;;9.48;3.00;;;;;;;24.83;37.17;101288.72;5011921;28;20030;-86
2023/06/05 11:07:21;;;;;;;13.80;1.90;;;;;;;24.78;35.04;101263.69;5011170;28;20026;-87
2023/06/05 11:10:02;;;;;;;9.75;2.63;;;;;;;24.94;34.62;101261.69;5011484;28;20042;-85
2023/06/05 11:12:39;;;;;;;7.45;1.60;;;;;;;24.83;34.56;101222.69;5011961;28;20143;-88
2023/06/05 11:15:16;;;;;;;16.35;2.83;;;;;;;25.03;35.37;101249.47;5010743;28;20033;-86
2023/06/05 11:17:46;;;;;;;6.20;2.40;;;;;;;24.99;35.17;101253.66;5014312;28;20034;-86
2023/06/05 11:20:21;;;;;;;5.88;1.63;;;;;;;24.94;36.62;101272.72;5015169;28;20030;-86
2023/06/05 11:22:53;;;;;;;10.05;1.90;;;;;;;24.81;37.73;101249.56;5014256;28;20220;-87
2023/06/05 11:25:19;;;;;;;8.73;1.90;;;;;;;24.94;37.70;101289.22;5014244;28;20065;-81